Time;durP1;ratioP1;P1;durP2;ratioP2;P2;SDS_P1;SDS_P2;PMS_P1;PMS_P2;Temp;Humidity;BMP_temperature;BMP_pressure;BME280_temperature;BME280_humidity;BME280_pressure;Samples;Min_cycle;Max_cycle;Signal;HPM_P1;HPM_P2
2022/05/19 00:01:56;;;;;;;4.40;2.63;;;14.40;99.90;;;;;;5032197;28;20120;-82
2022/05/19 00:04:22;;;;;;;6.47;2.53;;;14.30;99.90;;;;;;5033912;28;20108;-81
2022/05/19 00:06:48;;;;;;;3.88;2.58;;;14.30;99.90;;;;;;5051038;28;20023;-82
2022/05/19 00:09:15;;;;;;;13.05;3.10;;;14.30;99.90;;;;;;5051859;28;20032;-82
2022/05/19 00:11:42;;;;;;;5.25;2.70;;;14.20;99.90;;;;;;5051440;28;20559;-82
2022/05/19 00:14:08;;;;;;;5.10;2.72;;;14.20;99.90;;;;;;5051221;28;20110;-82
2022/05/19 00:16:34;;;;;;;5.18;2.60;;;14.20;99.90;;;;;;5033119;28;20028;-82
2022/05/19 00:19:00;;;;;;;6.60;2.80;;;14.10;99.90;;;;;;5051841;28;20684;-82
2022/05/19 00:21:27;;;;;;;7.35;3.03;;;14.10;99.90;;;;;;5052265;28;20146;-82
2022/05/19 00:23:53;;;;;;;7.13;2.80;;;14.10;99.90;;;;;;5050757;28;20025;-82
2022/05/19 00:26:20;;;;;;;5.97;2.90;;;14.00;99.90;;;;;;5050754;28;20052;-82
2022/05/19 00:28:45;;;;;;;3.63;2.40;;;14.00;99.90;;;;;;5050066;28;20067;-82
2022/05/19 00:31:12;;;;;;;6.05;2.72;;;14.00;99.90;;;;;;5032829;28;20048;-82
2022/05/19 00:33:37;;;;;;;4.72;2.50;;;13.90;99.90;;;;;;5051297;28;20031;-82
2022/05/19 00:36:08;;;;;;;6.22;2.63;;;13.90;99.90;;;;;;5051668;28;20123;-82
2022/05/19 00:38:36;;;;;;;5.05;2.50;;;13.80;99.90;;;;;;5051317;28;20481;-82
2022/05/19 00:41:02;;;;;;;4.85;2.40;;;13.80;99.90;;;;;;5050302;28;20043;-82
2022/05/19 00:43:35;;;;;;;6.13;2.38;;;13.80;99.90;;;;;;5033320;28;20430;-82
2022/05/19 00:46:12;;;;;;;4.32;2.55;;;13.70;99.90;;;;;;5050672;28;20071;-82
2022/05/19 00:49:01;;;;;;;8.75;2.97;;;13.70;99.90;;;;;;5048616;28;20025;-82
2022/05/19 00:51:50;;;;;;;6.72;2.85;;;13.60;99.90;;;;;;5031186;28;20028;-82
2022/05/19 00:54:20;;;;;;;5.85;3.00;;;13.60;99.90;;;;;;5049695;28;20044;-82
2022/05/19 00:56:54;;;;;;;4.45;2.90;;;13.50;99.90;;;;;;5049691;28;20036;-82
2022/05/19 00:59:27;;;;;;;5.43;2.90;;;13.50;99.90;;;;;;5032509;28;20025;-82
2022/05/19 01:01:55;;;;;;;4.75;2.58;;;13.50;99.90;;;;;;5051354;28;20482;-82
2022/05/19 01:04:35;;;;;;;5.25;2.78;;;13.50;99.90;;;;;;5049891;28;20021;-81
2022/05/19 01:07:10;;;;;;;5.93;2.90;;;13.40;99.90;;;;;;5050512;28;20056;-82
2022/05/19 01:09:37;;;;;;;4.95;2.85;;;13.40;99.90;;;;;;5050908;28;20049;-82
2022/05/19 01:12:04;;;;;;;2.83;2.20;;;13.40;99.90;;;;;;5050443;28;20182;-82
2022/05/19 01:14:31;;;;;;;5.65;2.70;;;13.30;99.90;;;;;;5033405;28;20063;-81
2022/05/19 01:16:57;;;;;;;6.00;3.38;;;13.30;99.90;;;;;;5053904;28;20021;-82
2022/05/19 01:19:32;;;;;;;5.47;2.95;;;13.30;99.90;;;;;;5054726;28;20191;-82
2022/05/19 01:22:05;;;;;;;5.40;3.08;;;13.20;99.90;;;;;;5054843;28;20056;-82
2022/05/19 01:24:39;;;;;;;7.32;3.00;;;13.20;99.90;;;;;;5054639;28;20039;-82
2022/05/19 01:27:05;;;;;;;7.65;2.90;;;13.20;99.90;;;;;;5037625;28;20124;-82
2022/05/19 01:29:30;;;;;;;3.55;2.83;;;13.20;99.90;;;;;;5054856;28;20517;-82
2022/05/19 01:32:01;;;;;;;7.15;2.78;;;13.10;99.90;;;;;;5054654;28;20029;-82
2022/05/19 01:34:31;;;;;;;4.80;2.80;;;13.10;99.90;;;;;;5053654;28;20405;-82
2022/05/19 01:36:57;;;;;;;5.00;2.85;;;13.00;99.90;;;;;;5054690;28;20353;-82
2022/05/19 01:39:27;;;;;;;5.90;2.88;;;13.00;99.90;;;;;;5054697;28;20031;-82
2022/05/19 01:42:15;;;;;;;6.28;3.65;;;12.90;99.90;;;;;;5054776;28;20055;-82
2022/05/19 01:45:03;;;;;;;4.07;2.63;;;12.90;99.90;;;;;;5050534;28;20027;-82
2022/05/19 01:47:40;;;;;;;5.43;3.25;;;12.90;99.90;;;;;;5052947;28;20508;-82
2022/05/19 01:50:26;;;;;;;7.68;3.35;;;12.80;99.90;;;;;;5054100;28;20112;-82
2022/05/19 01:53:11;;;;;;;5.60;3.03;;;12.80;99.90;;;;;;5036278;28;20389;-83
2022/05/19 01:56:04;;;;;;;8.65;3.10;;;12.80;99.90;;;;;;5036096;28;20024;-82
2022/05/19 01:58:45;;;;;;;4.78;2.95;;;12.80;99.90;;;;;;5035997;28;20127;-82
2022/05/19 02:01:14;;;;;;;5.72;3.60;;;12.70;99.90;;;;;;5035774;28;20047;-82
2022/05/19 02:03:54;;;;;;;5.20;3.17;;;12.70;99.90;;;;;;5054770;28;20748;-82
2022/05/19 02:06:28;;;;;;;7.25;3.03;;;12.60;99.90;;;;;;5035112;28;20355;-82
2022/05/19 02:09:04;;;;;;;9.65;3.08;;;12.60;99.90;;;;;;5054041;28;20021;-82
2022/05/19 02:11:34;;;;;;;5.53;3.30;;;12.50;99.90;;;;;;5054287;28;20143;-82
2022/05/19 02:14:07;;;;;;;5.15;3.03;;;12.50;99.90;;;;;;5037008;28;20033;-82
2022/05/19 02:16:33;;;;;;;5.22;3.50;;;12.40;99.90;;;;;;5054001;28;20032;-82
2022/05/19 02:18:59;;;;;;;7.55;3.33;;;12.30;99.90;;;;;;5053639;28;20054;-82
2022/05/19 02:21:27;;;;;;;8.85;3.03;;;12.20;99.90;;;;;;5053660;28;20029;-82
2022/05/19 02:23:56;;;;;;;7.18;3.97;;;12.10;99.90;;;;;;5054142;28;20533;-83
2022/05/19 02:26:22;;;;;;;6.45;3.92;;;12.00;99.90;;;;;;5052473;28;20013;-82
2022/05/19 02:28:56;;;;;;;11.40;4.63;;;11.90;99.90;;;;;;5052645;28;20195;-82
2022/05/19 02:31:22;;;;;;;8.85;4.57;;;11.90;99.90;;;;;;5052901;28;20374;-82
2022/05/19 02:33:48;;;;;;;10.15;4.20;;;11.80;99.90;;;;;;5053582;28;20025;-82
2022/05/19 02:36:13;;;;;;;6.38;4.03;;;11.80;99.90;;;;;;5053389;28;20029;-82
2022/05/19 02:38:39;;;;;;;7.63;3.90;;;11.80;99.90;;;;;;5053233;28;20040;-82
2022/05/19 02:41:05;;;;;;;8.23;4.32;;;11.70;99.90;;;;;;5053616;28;20087;-82
2022/05/19 02:43:30;;;;;;;6.85;4.05;;;11.70;99.90;;;;;;5053672;28;20064;-82
2022/05/19 02:45:56;;;;;;;8.07;4.22;;;11.70;99.90;;;;;;5053243;28;20025;-82
2022/05/19 02:48:23;;;;;;;7.43;5.35;;;11.60;99.90;;;;;;5053019;28;20029;-82
2022/05/19 02:50:50;;;;;;;5.35;3.60;;;11.60;99.90;;;;;;5052243;28;20044;-82
2022/05/19 02:53:19;;;;;;;7.22;4.20;;;11.50;99.90;;;;;;5053359;28;20045;-82
2022/05/19 02:55:45;;;;;;;7.28;4.10;;;11.50;99.90;;;;;;5052187;28;20120;-82
2022/05/19 02:58:12;;;;;;;7.10;4.38;;;11.40;99.90;;;;;;5051444;28;20108;-82
2022/05/19 03:00:40;;;;;;;11.35;4.70;;;11.40;99.90;;;;;;5035000;28;20075;-82
2022/05/19 03:03:06;;;;;;;8.80;4.22;;;11.40;99.90;;;;;;5052658;28;20036;-82
2022/05/19 03:05:33;;;;;;;8.00;3.97;;;11.40;99.90;;;;;;5035185;28;20456;-82
2022/05/19 03:07:59;;;;;;;10.88;4.45;;;11.40;99.90;;;;;;5052523;28;20049;-82
2022/05/19 03:10:25;;;;;;;8.30;4.70;;;11.30;99.90;;;;;;5052831;28;20065;-82
2022/05/19 03:12:53;;;;;;;12.18;4.55;;;11.30;99.90;;;;;;5052147;28;20032;-82
2022/05/19 03:15:19;;;;;;;5.85;3.95;;;11.30;99.90;;;;;;5033358;28;20115;-82
2022/05/19 03:17:45;;;;;;;8.93;3.95;;;11.20;99.90;;;;;;5052405;28;20048;-82
2022/05/19 03:20:12;;;;;;;6.53;4.22;;;11.20;99.90;;;;;;5051833;28;20115;-82
2022/05/19 03:22:37;;;;;;;10.13;4.35;;;11.20;99.90;;;;;;5052425;28;20032;-82
2022/05/19 03:25:05;;;;;;;7.47;4.73;;;11.20;99.90;;;;;;5052819;28;20041;-82
2022/05/19 03:27:31;;;;;;;7.67;5.20;;;11.20;99.90;;;;;;5052423;28;20021;-82
2022/05/19 03:29:56;;;;;;;10.35;5.00;;;11.20;99.90;;;;;;5035313;28;20445;-82
2022/05/19 03:32:22;;;;;;;9.50;5.55;;;11.10;99.90;;;;;;5052488;28;20033;-82
2022/05/19 03:34:48;;;;;;;7.93;4.90;;;11.10;99.90;;;;;;5052107;28;20036;-81
2022/05/19 03:37:14;;;;;;;7.80;4.90;;;11.00;99.90;;;;;;5050829;28;20068;-82
2022/05/19 03:39:40;;;;;;;8.57;4.78;;;11.00;99.90;;;;;;5034572;28;20125;-81
2022/05/19 03:42:07;;;;;;;7.35;4.63;;;11.00;99.90;;;;;;5052248;28;20025;-82
2022/05/19 03:44:34;;;;;;;6.93;4.50;;;11.00;99.90;;;;;;5052774;28;20123;-82
2022/05/19 03:47:01;;;;;;;5.97;4.25;;;10.90;99.90;;;;;;5052263;28;20025;-82
2022/05/19 03:49:27;;;;;;;7.22;4.30;;;10.90;99.90;;;;;;5052089;28;20083;-82
2022/05/19 03:51:53;;;;;;;5.40;3.70;;;10.90;99.90;;;;;;5034007;28;20470;-81
2022/05/19 03:54:18;;;;;;;5.93;4.03;;;10.90;99.90;;;;;;5049591;28;20111;-82
2022/05/19 03:56:44;;;;;;;7.88;4.30;;;10.90;99.90;;;;;;5052374;28;20048;-81
2022/05/19 03:59:09;;;;;;;7.95;5.15;;;10.90;99.90;;;;;;5051894;28;20091;-82
2022/05/19 04:01:37;;;;;;;7.82;4.82;;;10.90;99.90;;;;;;5052086;28;20037;-81
2022/05/19 04:04:03;;;;;;;9.05;4.43;;;11.00;99.90;;;;;;5050912;28;20882;-82
2022/05/19 04:06:29;;;;;;;5.72;4.20;;;11.00;99.90;;;;;;5051828;28;20029;-81
2022/05/19 04:08:55;;;;;;;6.00;4.45;;;11.00;99.90;;;;;;5052196;28;20458;-81
2022/05/19 04:11:20;;;;;;;6.18;4.07;;;11.00;99.90;;;;;;5052204;28;20032;-81
2022/05/19 04:13:46;;;;;;;9.20;4.30;;;11.00;99.90;;;;;;5034570;28;20112;-81
2022/05/19 04:16:11;;;;;;;7.13;4.20;;;11.10;99.90;;;;;;5048874;28;20028;-86
2022/05/19 04:18:38;;;;;;;7.75;4.30;;;11.10;99.90;;;;;;5047157;28;20032;-89
2022/05/19 04:21:04;;;;;;;6.03;4.30;;;11.10;99.90;;;;;;5047448;28;20021;-80
2022/05/19 04:23:33;;;;;;;9.18;4.40;;;11.20;99.90;;;;;;5039751;28;20020;-80
2022/05/19 04:25:58;;;;;;;5.82;4.05;;;11.20;99.90;;;;;;5046490;28;20033;-80
2022/05/19 04:28:24;;;;;;;6.55;4.38;;;11.20;99.90;;;;;;5045926;28;20098;-77
2022/05/19 04:30:50;;;;;;;6.68;4.32;;;11.30;99.90;;;;;;5042064;28;20079;-76
2022/05/19 04:33:15;;;;;;;9.63;4.47;;;11.30;99.90;;;;;;5045129;28;20036;-77
2022/05/19 04:35:41;;;;;;;9.25;4.28;;;11.30;99.90;;;;;;5047723;28;20029;-80
2022/05/19 04:38:15;;;;;;;7.65;4.28;;;11.30;99.90;;;;;;5047137;28;20040;-77
2022/05/19 04:40:46;;;;;;;8.02;4.85;;;11.40;99.90;;;;;;5048877;28;20059;-77
2022/05/19 04:43:13;;;;;;;8.90;5.68;;;11.50;99.90;;;;;;5047122;28;20032;-77
2022/05/19 04:45:39;;;;;;;11.20;4.43;;;11.50;99.90;;;;;;5047525;28;20138;-77
2022/05/19 04:48:05;;;;;;;10.88;4.43;;;11.50;99.90;;;;;;5028868;28;20135;-77
2022/05/19 04:50:30;;;;;;;8.35;4.35;;;11.70;99.90;;;;;;5044772;28;20021;-81
2022/05/19 04:53:00;;;;;;;5.95;4.30;;;11.70;99.90;;;;;;5044637;28;20127;-80
2022/05/19 04:55:26;;;;;;;9.23;4.82;;;11.70;99.90;;;;;;5046315;28;20037;-85
2022/05/19 05:00:52;;;;;;;19.05;4.50;;;11.80;99.90;;;;;;5025644;28;20037;-94
2022/05/19 05:03:21;;;;;;;14.63;4.90;;;11.90;99.90;;;;;;5031750;28;20025;-88
2022/05/19 05:05:50;;;;;;;13.25;4.80;;;11.90;99.90;;;;;;5051201;28;20104;-89
2022/05/19 05:08:17;;;;;;;7.22;4.55;;;12.00;99.90;;;;;;5029953;28;20029;-79
2022/05/19 05:10:43;;;;;;;9.77;4.80;;;12.00;99.90;;;;;;5050135;28;20024;-89
2022/05/19 05:13:11;;;;;;;14.23;5.28;;;12.10;99.90;;;;;;5046459;28;20029;-79
2022/05/19 05:15:38;;;;;;;9.70;5.00;;;12.20;99.90;;;;;;5044743;28;20551;-80
2022/05/19 05:18:10;;;;;;;10.63;5.40;;;12.30;99.90;;;;;;5047440;28;20044;-80
2022/05/19 05:20:42;;;;;;;10.65;4.97;;;12.40;99.90;;;;;;5049170;28;20024;-80
2022/05/19 05:23:08;;;;;;;11.93;5.50;;;12.50;99.90;;;;;;5047352;28;20025;-79
2022/05/19 05:25:33;;;;;;;9.75;4.60;;;12.60;99.90;;;;;;5030107;28;20596;-79
2022/05/19 05:28:00;;;;;;;11.73;4.80;;;12.60;99.90;;;;;;5048408;28;20043;-79
2022/05/19 05:30:26;;;;;;;13.98;5.05;;;12.80;99.90;;;;;;5030580;28;20032;-79
2022/05/19 05:33:12;;;;;;;7.47;4.68;;;12.80;99.90;;;;;;5048917;28;20017;-88
2022/05/19 05:35:40;;;;;;;10.50;5.20;;;12.90;99.90;;;;;;5034227;28;20044;-79
2022/05/19 05:38:05;;;;;;;21.50;5.78;;;13.10;99.90;;;;;;5047681;28;20834;-80
2022/05/19 05:40:31;;;;;;;12.68;5.03;;;13.20;99.90;;;;;;5028624;28;20060;-79
2022/05/19 05:43:05;;;;;;;14.60;5.47;;;13.30;99.90;;;;;;5046387;28;20040;-79
2022/05/19 05:45:30;;;;;;;8.75;5.18;;;13.40;99.90;;;;;;5046779;28;20096;-79
2022/05/19 05:47:56;;;;;;;14.93;4.82;;;13.60;99.90;;;;;;5028744;28;20111;-79
2022/05/19 05:50:29;;;;;;;12.00;4.78;;;13.70;99.90;;;;;;5047026;28;20101;-81
2022/05/19 05:53:08;;;;;;;;;;;;;;;;;;;;;
2022/05/19 05:56:50;;;;;;;;;;;;;;;;;;;;;
2022/05/19 06:06:19;;;;;;;9.57;4.53;;;14.90;99.90;;;;;;5036218;28;20033;-85
2022/05/19 06:08:50;;;;;;;11.73;4.50;;;15.20;99.90;;;;;;5049925;28;20043;-80
2022/05/19 06:15:03;;;;;;;10.88;5.32;;;15.60;99.90;;;;;;4915560;29;20115;-83
2022/05/19 06:17:31;;;;;;;10.50;4.63;;;15.80;99.90;;;;;;4944053;28;20062;-83
2022/05/19 06:19:59;;;;;;;16.17;5.05;;;15.90;99.90;;;;;;4969054;28;20046;-84
2022/05/19 06:22:31;;;;;;;12.88;4.72;;;16.00;99.90;;;;;;4971671;28;20043;-84
2022/05/19 06:24:59;;;;;;;14.18;4.88;;;16.00;99.90;;;;;;5018370;28;20095;-81
2022/05/19 06:27:24;;;;;;;13.05;5.10;;;16.10;99.90;;;;;;5050985;28;20029;-80
2022/05/19 06:29:50;;;;;;;13.30;5.00;;;16.10;99.90;;;;;;5052823;28;20021;-80
2022/05/19 06:32:18;;;;;;;10.38;4.75;;;16.20;99.90;;;;;;5052635;28;20111;-81
2022/05/19 06:35:10;;;;;;;8.05;4.68;;;16.20;99.90;;;;;;5053084;28;20056;-81
2022/05/19 06:38:01;;;;;;;18.42;5.05;;;16.40;99.90;;;;;;5039951;28;20049;-85
2022/05/19 06:40:30;;;;;;;9.57;4.90;;;16.50;99.90;;;;;;5021566;28;20481;-81
2022/05/19 06:42:59;;;;;;;8.25;4.70;;;16.60;99.90;;;;;;5028403;28;20029;-81
2022/05/19 06:48:52;;;;;;;7.63;4.28;;;16.90;99.90;;;;;;5029340;28;20029;-81
2022/05/19 06:51:20;;;;;;;7.70;4.65;;;17.20;99.90;;;;;;5052989;28;20028;-81
2022/05/19 06:53:53;;;;;;;18.50;5.60;;;17.20;99.90;;;;;;5035612;28;20079;-81
2022/05/19 06:56:31;;;;;;;13.52;4.90;;;17.30;99.90;;;;;;5050940;28;20068;-81
2022/05/19 06:59:05;;;;;;;11.25;4.50;;;17.30;99.90;;;;;;5050588;28;20462;-82
2022/05/19 07:01:31;;;;;;;14.32;4.88;;;17.30;99.90;;;;;;5051890;28;20072;-81
2022/05/19 07:04:00;;;;;;;9.25;4.43;;;17.40;99.90;;;;;;5053310;28;20056;-81
2022/05/19 07:06:28;;;;;;;10.60;4.50;;;17.50;99.90;;;;;;5034919;28;20044;-81
2022/05/19 07:09:01;;;;;;;10.38;4.75;;;17.60;99.90;;;;;;5034756;28;20021;-81
2022/05/19 07:11:30;;;;;;;11.07;5.38;;;17.60;99.90;;;;;;5053112;28;20028;-81
2022/05/19 07:14:07;;;;;;;10.20;4.63;;;17.70;99.90;;;;;;5033747;28;20082;-81
2022/05/19 07:16:36;;;;;;;8.95;4.78;;;17.70;99.90;;;;;;5030833;28;20029;-81
2022/05/19 07:21:52;;;;;;;15.80;4.85;;;17.80;99.90;;;;;;5047461;28;20032;-81
2022/05/19 07:24:20;;;;;;;9.63;4.53;;;18.00;99.90;;;;;;5051934;28;20668;-81
2022/05/19 07:27:02;;;;;;;10.07;4.28;;;18.00;99.90;;;;;;5050088;28;20057;-81
2022/05/19 07:29:31;;;;;;;9.00;4.25;;;18.10;99.90;;;;;;5050901;28;20025;-81
2022/05/19 07:32:14;;;;;;;6.55;3.88;;;18.20;99.90;;;;;;5051492;28;20104;-81
2022/05/19 07:34:40;;;;;;;9.45;3.63;;;18.30;99.90;;;;;;5031862;28;20061;-81
2022/05/19 07:37:11;;;;;;;6.63;3.63;;;18.40;99.90;;;;;;5051469;28;20032;-81
2022/05/19 07:39:36;;;;;;;11.27;4.28;;;18.60;99.90;;;;;;5033623;28;20063;-81
2022/05/19 07:42:02;;;;;;;6.93;3.22;;;18.70;99.90;;;;;;5033958;28;20351;-81
2022/05/19 07:44:30;;;;;;;5.68;3.35;;;18.80;99.90;;;;;;5051179;28;20087;-81
2022/05/19 07:46:58;;;;;;;9.65;3.80;;;18.90;99.90;;;;;;5031202;28;20327;-81
2022/05/19 07:49:38;;;;;;;5.90;3.50;;;19.00;99.90;;;;;;5049417;28;20369;-81
2022/05/19 07:52:13;;;;;;;7.22;3.25;;;19.20;99.90;;;;;;5050028;28;20029;-81
2022/05/19 07:54:40;;;;;;;6.35;3.30;;;19.40;99.90;;;;;;5049554;28;20024;-81
2022/05/19 07:57:10;;;;;;;8.25;3.88;;;19.40;99.90;;;;;;5051477;28;20031;-81
2022/05/19 07:59:41;;;;;;;8.07;3.42;;;19.60;99.90;;;;;;5050695;28;20453;-81
2022/05/19 08:02:09;;;;;;;7.32;3.33;;;19.60;99.90;;;;;;5050639;28;20021;-81
2022/05/19 08:04:42;;;;;;;4.88;3.42;;;19.80;99.90;;;;;;5050971;28;20029;-81
2022/05/19 08:07:10;;;;;;;5.07;3.38;;;19.90;99.90;;;;;;5032669;28;20032;-81
2022/05/19 08:17:58;;;;;;;10.43;3.95;;;20.30;99.90;;;;;;5050965;28;20373;-81
2022/05/19 08:20:24;;;;;;;8.45;3.20;;;20.50;99.90;;;;;;5032890;28;20126;-81
2022/05/19 08:22:50;;;;;;;7.28;3.45;;;20.50;99.90;;;;;;5050946;28;20078;-81
2022/05/19 08:25:18;;;;;;;8.93;3.97;;;20.60;99.90;;;;;;5050738;28;20021;-81
2022/05/19 08:27:49;;;;;;;6.60;3.50;;;20.70;99.90;;;;;;5048607;28;20021;-81
2022/05/19 08:30:18;;;;;;;6.90;3.13;;;20.80;99.90;;;;;;5031797;28;20142;-81
2022/05/19 08:32:43;;;;;;;7.82;3.13;;;20.90;99.90;;;;;;5046908;28;20029;-81
2022/05/19 08:35:09;;;;;;;5.95;3.42;;;20.90;99.90;;;;;;5050418;28;20047;-81
2022/05/19 08:37:35;;;;;;;4.00;2.72;;;21.10;99.90;;;;;;5050817;28;20041;-81
2022/05/19 08:40:01;;;;;;;5.07;2.70;;;21.10;99.90;;;;;;5049626;28;20071;-81
2022/05/19 08:42:30;;;;;;;4.60;3.40;;;21.20;99.90;;;;;;5050469;28;20037;-81
2022/05/19 08:45:01;;;;;;;15.30;3.40;;;21.30;99.90;;;;;;5050618;28;20017;-81
2022/05/19 08:47:30;;;;;;;7.18;3.00;;;21.40;99.90;;;;;;5030182;28;20112;-83
2022/05/19 08:50:03;;;;;;;6.13;2.90;;;21.60;99.90;;;;;;5048495;28;20021;-81
2022/05/19 08:52:39;;;;;;;8.10;3.03;;;21.70;99.90;;;;;;5049532;28;20048;-79
2022/05/19 08:55:06;;;;;;;5.65;3.10;;;21.80;99.90;;;;;;5048558;28;20017;-79
2022/05/19 08:58:02;;;;;;;6.55;3.22;;;22.00;99.90;;;;;;5049234;28;20029;-80
2022/05/19 09:00:42;;;;;;;5.20;2.78;;;22.10;99.90;;;;;;5047668;28;20036;-80
2022/05/19 09:03:18;;;;;;;5.15;2.95;;;22.20;99.90;;;;;;5031754;28;20457;-80
2022/05/19 09:05:53;;;;;;;5.07;2.70;;;22.40;99.90;;;;;;5049916;28;20799;-80
2022/05/19 09:08:43;;;;;;;4.72;2.65;;;22.50;99.90;;;;;;5048999;28;20021;-80
2022/05/19 09:11:13;;;;;;;4.95;3.20;;;22.70;99.90;;;;;;5029095;28;20082;-83
2022/05/19 09:13:45;;;;;;;6.88;3.00;;;22.90;99.90;;;;;;5050544;28;20033;-83
2022/05/19 09:16:33;;;;;;;7.00;2.80;;;23.00;99.90;;;;;;5031714;28;20058;-83
2022/05/19 09:19:04;;;;;;;6.07;3.15;;;23.10;99.90;;;;;;5046933;28;20088;-82
2022/05/19 09:21:30;;;;;;;6.25;3.20;;;23.30;99.90;;;;;;5047937;28;20135;-81
2022/05/19 09:23:56;;;;;;;7.80;3.03;;;23.60;99.90;;;;;;5031597;28;20086;-79
2022/05/19 09:26:29;;;;;;;5.13;2.78;;;23.80;99.90;;;;;;5030523;28;20372;-81
2022/05/19 09:28:57;;;;;;;5.50;2.95;;;24.10;99.90;;;;;;5048146;28;20130;-79
2022/05/19 09:31:42;;;;;;;8.15;3.10;;;24.50;99.90;;;;;;5032700;28;20186;-79
2022/05/19 09:34:09;;;;;;;8.40;3.75;;;24.80;99.90;;;;;;5049224;28;20021;-78
2022/05/19 09:36:41;;;;;;;5.45;3.00;;;25.10;99.90;;;;;;5052666;28;20482;-78
2022/05/19 09:39:14;;;;;;;5.45;3.05;;;25.40;99.90;;;;;;5052873;28;20470;-79
2022/05/19 09:41:48;;;;;;;7.38;3.05;;;25.70;99.90;;;;;;5052879;28;20539;-78
2022/05/19 09:44:16;;;;;;;5.50;3.03;;;26.10;99.90;;;;;;5035881;28;20035;-79
2022/05/19 09:46:43;;;;;;;6.30;3.10;;;26.50;99.90;;;;;;5050656;28;20021;-79
2022/05/19 09:49:27;;;;;;;6.22;2.90;;;26.50;99.90;;;;;;5054868;28;20019;-79
2022/05/19 09:51:57;;;;;;;6.25;3.20;;;26.80;99.90;;;;;;5053435;28;20045;-79
2022/05/19 09:54:23;;;;;;;5.20;2.90;;;27.00;99.90;;;;;;5053941;28;20122;-79
2022/05/19 09:56:53;;;;;;;7.43;3.28;;;27.30;99.90;;;;;;5035682;28;20071;-79
2022/05/19 09:59:32;;;;;;;7.20;2.80;;;27.30;99.90;;;;;;5054033;28;20082;-79
2022/05/19 10:02:25;;;;;;;3.17;2.60;;;27.40;99.90;;;;;;5050371;28;20021;-79
2022/05/19 10:04:55;;;;;;;5.28;2.80;;;27.70;99.90;;;;;;5053006;28;20105;-79
2022/05/19 10:07:24;;;;;;;7.00;3.00;;;27.90;99.90;;;;;;5039005;28;20078;-82
2022/05/19 10:09:52;;;;;;;6.03;2.70;;;28.00;99.90;;;;;;5050679;28;20033;-83
2022/05/19 10:12:25;;;;;;;9.45;3.47;;;28.20;99.90;;;;;;5034992;28;20401;-83
2022/05/19 10:15:02;;;;;;;8.57;3.13;;;28.20;99.90;;;;;;5036829;28;20072;-83
2022/05/19 10:17:31;;;;;;;6.57;2.67;;;28.40;99.90;;;;;;5049250;28;20040;-83
2022/05/19 10:20:07;;;;;;;4.88;2.20;;;28.50;99.90;;;;;;5010257;28;20704;-81
2022/05/19 10:23:04;;;;;;;5.28;3.03;;;28.50;99.90;;;;;;5033926;28;20040;-82
2022/05/19 10:25:36;;;;;;;5.88;2.67;;;28.60;99.90;;;;;;5044408;28;20029;-82
2022/05/19 10:31:05;;;;;;;6.55;3.05;;;28.90;99.90;;;;;;5040485;28;20127;-75
2022/05/19 10:33:30;;;;;;;9.60;3.70;;;29.10;99.90;;;;;;5051113;28;20071;-74
2022/05/19 10:36:28;;;;;;;5.70;3.05;;;29.20;99.90;;;;;;5051924;28;20025;-73
2022/05/19 10:38:53;;;;;;;5.78;2.83;;;29.20;99.90;;;;;;5053191;28;20838;-74
2022/05/19 10:42:02;;;;;;;6.53;2.95;;;29.40;99.90;;;;;;5053984;28;20021;-74
2022/05/19 10:44:39;;;;;;;5.05;3.13;;;29.40;99.90;;;;;;5053141;28;20078;-73
2022/05/19 10:47:26;;;;;;;6.28;3.00;;;29.80;99.90;;;;;;5051927;28;20458;-74
2022/05/19 10:50:13;;;;;;;9.35;2.70;;;30.00;99.90;;;;;;5051614;28;20100;-74
2022/05/19 10:52:55;;;;;;;9.27;2.65;;;30.10;99.90;;;;;;5050903;28;20045;-74
2022/05/19 10:55:36;;;;;;;5.30;2.75;;;30.00;99.90;;;;;;5051250;28;20113;-74
2022/05/19 10:58:11;;;;;;;8.80;2.75;;;30.00;99.90;;;;;;5050723;28;20374;-73
2022/05/19 11:00:36;;;;;;;;;;;30.00;99.90;;;;;;5050858;28;20029;-79
2022/05/19 11:03:11;;;;;;;9.10;3.20;;;30.10;99.90;;;;;;5053666;28;19920;-74
2022/05/19 11:06:01;;;;;;;7.95;3.00;;;30.30;99.90;;;;;;5046743;28;20040;-73
2022/05/19 11:09:04;;;;;;;4.85;2.80;;;30.20;99.90;;;;;;5047632;28;20029;-73
2022/05/19 11:11:50;;;;;;;5.75;2.97;;;30.50;99.90;;;;;;5040817;28;20501;-73
2022/05/19 11:14:33;;;;;;;8.70;2.92;;;30.70;99.90;;;;;;5046488;28;20029;-73
2022/05/19 11:17:12;;;;;;;10.40;3.10;;;31.20;98.10;;;;;;5048534;28;20657;-73
2022/05/19 11:20:03;;;;;;;7.72;2.63;;;31.10;99.60;;;;;;5044599;28;20107;-73
2022/05/19 11:22:32;;;;;;;4.82;2.85;;;31.20;98.50;;;;;;5044915;28;21358;-73
2022/05/19 11:28:33;;;;;;;8.68;2.90;;;31.30;97.40;;;;;;5047982;28;20094;-74
2022/05/19 11:31:04;;;;;;;7.88;2.88;;;31.80;97.20;;;;;;5047433;28;20033;-74
2022/05/19 11:33:39;;;;;;;6.95;2.88;;;32.20;96.40;;;;;;5049315;28;20044;-73
2022/05/19 11:36:33;;;;;;;3.63;2.42;;;32.50;93.90;;;;;;5047286;28;20032;-74
2022/05/19 11:39:06;;;;;;;3.97;2.63;;;32.70;93.60;;;;;;5046450;28;20045;-74
2022/05/19 11:41:36;;;;;;;3.90;2.55;;;32.80;93.70;;;;;;5047082;28;20787;-74
2022/05/19 11:44:10;;;;;;;5.40;2.88;;;32.80;92.10;;;;;;5046814;28;20116;-73
2022/05/19 11:47:07;;;;;;;5.03;2.75;;;32.60;91.80;;;;;;5045655;28;20527;-73
2022/05/19 11:55:46;;;;;;;6.53;2.88;;;32.70;93.70;;;;;;5044323;28;20074;-74
2022/05/19 11:58:23;;;;;;;7.85;2.88;;;32.80;92.20;;;;;;5044721;28;20071;-73
2022/05/19 12:01:06;;;;;;;6.78;2.78;;;33.10;91.00;;;;;;5046032;28;20047;-80
2022/05/19 12:03:37;;;;;;;5.97;3.00;;;33.10;90.80;;;;;;5046620;28;20033;-74
2022/05/19 12:06:17;;;;;;;3.85;2.38;;;33.20;91.50;;;;;;5028363;28;20037;-75
2022/05/19 12:08:52;;;;;;;6.35;2.67;;;33.10;88.00;;;;;;5043793;28;20028;-74
2022/05/19 12:11:22;;;;;;;4.88;2.60;;;33.10;87.60;;;;;;5040534;28;20737;-74
2022/05/19 12:14:12;;;;;;;6.38;2.50;;;33.10;83.20;;;;;;5042316;28;20029;-74
2022/05/19 12:16:51;;;;;;;4.43;2.22;;;33.20;85.10;;;;;;5044049;28;20025;-74
2022/05/19 12:19:44;;;;;;;8.63;2.90;;;33.30;86.30;;;;;;5045096;28;20033;-73
2022/05/19 12:22:24;;;;;;;5.23;2.40;;;33.20;88.00;;;;;;5040004;28;20049;-73
2022/05/19 12:25:07;;;;;;;4.82;2.30;;;33.30;86.30;;;;;;5027130;28;20062;-74
2022/05/19 12:27:38;;;;;;;6.90;2.40;;;33.70;85.20;;;;;;5027116;28;20055;-74
2022/05/19 12:33:10;;;;;;;6.80;3.05;;;32.90;82.10;;;;;;5038876;28;20134;-74
2022/05/19 12:35:39;;;;;;;6.47;2.67;;;33.00;85.00;;;;;;5045013;28;20020;-74
2022/05/19 12:38:35;;;;;;;4.45;2.67;;;33.10;85.10;;;;;;5044064;28;20116;-68
2022/05/19 12:41:06;;;;;;;3.88;2.47;;;33.30;81.20;;;;;;5044115;28;20029;-68
2022/05/19 12:43:40;;;;;;;9.45;2.75;;;33.50;80.30;;;;;;5046145;28;20048;-68
2022/05/19 12:46:10;;;;;;;5.03;2.47;;;33.70;82.50;;;;;;5046244;28;20111;-69
2022/05/19 12:48:36;;;;;;;6.38;2.40;;;33.90;80.20;;;;;;5045278;28;20048;-68
2022/05/19 12:51:16;;;;;;;5.53;2.28;;;34.10;76.80;;;;;;5048441;28;20060;-68
2022/05/19 12:53:51;;;;;;;6.28;2.47;;;34.20;76.90;;;;;;5042825;28;20060;-68
2022/05/19 12:56:38;;;;;;;8.95;2.58;;;34.10;80.10;;;;;;5044392;28;20104;-68
2022/05/19 12:59:07;;;;;;;5.72;2.65;;;34.50;77.50;;;;;;5045322;28;20417;-68
2022/05/19 13:01:37;;;;;;;4.78;2.25;;;34.60;80.10;;;;;;5024683;28;20401;-68
2022/05/19 13:04:43;;;;;;;7.53;2.75;;;34.70;76.00;;;;;;5044587;28;20184;-68
2022/05/19 13:07:31;;;;;;;9.43;2.70;;;34.50;79.00;;;;;;4988695;28;20112;-68
2022/05/19 13:10:21;;;;;;;5.50;2.35;;;34.40;77.10;;;;;;5044955;28;20083;-68
2022/05/19 13:13:03;;;;;;;3.70;2.17;;;34.70;74.80;;;;;;5049500;28;20028;-68
2022/05/19 13:15:32;;;;;;;6.25;2.20;;;34.50;73.10;;;;;;5047461;28;20499;-68
2022/05/19 13:18:04;;;;;;;5.25;1.98;;;34.40;72.30;;;;;;5048711;28;20378;-68
2022/05/19 13:20:35;;;;;;;7.82;2.25;;;34.50;72.80;;;;;;5047880;28;20343;-68
2022/05/19 13:23:05;;;;;;;3.92;2.10;;;34.20;73.60;;;;;;5048402;28;20453;-68
2022/05/19 13:25:33;;;;;;;5.80;1.98;;;33.90;72.40;;;;;;5048897;28;20721;-69
2022/05/19 13:31:02;;;;;;;3.45;2.13;;;33.20;74.80;;;;;;5047914;28;20143;-68
2022/05/19 13:33:37;;;;;;;5.80;2.10;;;33.00;75.50;;;;;;5049819;28;20115;-69
2022/05/19 13:36:06;;;;;;;6.82;2.38;;;33.10;73.70;;;;;;5049446;28;20028;-68
2022/05/19 13:38:32;;;;;;;4.57;2.05;;;32.90;75.30;;;;;;5048690;28;20037;-68
2022/05/19 13:40:58;;;;;;;6.88;2.35;;;33.00;74.60;;;;;;5048921;28;20474;-69
2022/05/19 13:43:40;;;;;;;4.82;2.53;;;33.00;74.60;;;;;;5048679;28;20029;-68
2022/05/19 13:46:27;;;;;;;5.15;2.22;;;32.80;73.20;;;;;;5047720;28;20424;-68
2022/05/19 13:48:59;;;;;;;6.07;2.38;;;32.50;73.00;;;;;;5048257;28;20234;-68
2022/05/19 13:51:27;;;;;;;7.72;2.08;;;32.20;74.00;;;;;;5048377;28;20045;-68
2022/05/19 13:54:06;;;;;;;5.70;2.10;;;32.00;74.40;;;;;;5048119;28;20186;-69
2022/05/19 13:56:42;;;;;;;7.20;2.30;;;31.70;75.30;;;;;;5047298;28;20155;-75
2022/05/19 13:59:11;;;;;;;6.47;2.58;;;31.40;77.80;;;;;;5049244;28;20036;-69
2022/05/19 14:01:41;;;;;;;5.78;2.17;;;31.20;75.90;;;;;;5048917;28;20040;-68